Arlington, Minnesota
Current Conditions -  °F | °C
As of 1:34 AM on Monday 22 Dec 2014 (Local Time) from KGYL Reporting Station
Haze Haze  
Wind Chill: 32°   Ceiling: 500
Heat Index: 39°   Visibility: 5mi
Dew Point: 38°   Wind: 9mph
Humidity: 99%   Direction: 140°SE
Pressure: 29.64"   Gusts: 17mph
Location:  44.61°N, 94.08°W
Report Text: KGYL 220734Z AUTO 14008G15KT 5SM BR OVC005 04/04 A2964 RMK AO2 T00370036
Loading
Personal Weather Stations






























Interactive Weather Map New forecast layout! Learn more

10-Day Weather Forecast

Advertisements
Track Severe Weather on mobile